createdAt,value
2022-10-12T00:00:31.862Z,13.60
2022-10-12T00:01:33.270Z,13.50
2022-10-12T00:02:34.730Z,13.50
2022-10-12T00:03:36.689Z,13.50
2022-10-12T00:04:38.055Z,13.50
2022-10-12T00:05:39.411Z,13.60
2022-10-12T00:06:40.770Z,13.50
2022-10-12T00:07:42.434Z,13.60
2022-10-12T00:08:45.199Z,13.60
2022-10-12T00:09:46.847Z,13.60
2022-10-12T00:10:48.324Z,13.60
2022-10-12T00:11:49.752Z,13.60
2022-10-12T00:12:51.155Z,13.50
2022-10-12T00:13:53.870Z,13.60
2022-10-12T00:14:55.257Z,13.50
2022-10-12T00:15:56.918Z,13.60
2022-10-12T00:16:58.352Z,13.60
2022-10-12T00:17:59.738Z,13.50
2022-10-12T00:19:01.511Z,13.50
2022-10-12T00:20:04.471Z,13.50
2022-10-12T00:21:09.421Z,13.50
2022-10-12T00:22:11.012Z,13.60
2022-10-12T00:23:12.471Z,13.50
2022-10-12T00:24:13.831Z,13.50
2022-10-12T00:25:15.192Z,13.50
2022-10-12T00:26:23.435Z,13.50
2022-10-12T00:27:25.314Z,13.50
2022-10-12T00:28:26.712Z,13.50
2022-10-12T00:29:28.246Z,13.60
2022-10-12T00:30:29.725Z,13.50
2022-10-12T00:31:31.286Z,13.50
2022-10-12T00:32:32.695Z,13.60
2022-10-12T00:33:34.092Z,13.60
2022-10-12T00:34:35.467Z,13.60
2022-10-12T00:35:37.125Z,13.50
2022-10-12T00:36:39.165Z,13.50
2022-10-12T00:37:40.643Z,13.60
2022-10-12T00:38:42.942Z,13.60
2022-10-12T00:39:49.400Z,13.50
2022-10-12T00:40:50.841Z,13.60
2022-10-12T00:41:52.254Z,13.60
2022-10-12T00:42:53.614Z,13.50
2022-10-12T00:43:58.452Z,13.60
2022-10-12T00:45:00.861Z,13.60
2022-10-12T00:46:05.346Z,13.60
2022-10-12T00:47:24.146Z,13.60
2022-10-12T00:48:26.354Z,13.60
2022-10-12T00:49:28.483Z,13.60
2022-10-12T00:50:34.040Z,13.50
2022-10-12T00:51:35.536Z,13.50
2022-10-12T00:53:09.005Z,13.60
2022-10-12T00:54:15.429Z,13.60
2022-10-12T00:55:20.097Z,13.50
2022-10-12T00:56:24.293Z,13.40
2022-10-12T00:57:25.749Z,13.50
2022-10-12T00:58:31.717Z,13.40
2022-10-12T00:59:39.712Z,13.40
2022-10-12T01:00:42.774Z,13.30
2022-10-12T01:01:44.298Z,13.40
2022-10-12T01:02:47.266Z,13.40
2022-10-12T01:03:49.293Z,13.40
2022-10-12T01:04:51.001Z,13.50
2022-10-12T01:05:52.600Z,13.50
2022-10-12T01:06:54.084Z,13.40
2022-10-12T01:07:55.560Z,13.30
2022-10-12T01:08:57.633Z,13.30
2022-10-12T01:09:59.207Z,13.20
2022-10-12T01:11:00.590Z,13.20
2022-10-12T01:12:04.902Z,13.20
2022-10-12T01:13:06.918Z,13.10
2022-10-12T01:14:08.629Z,13.10
2022-10-12T01:15:11.771Z,13.00
2022-10-12T01:16:29.518Z,12.90
2022-10-12T01:18:06.914Z,12.90
2022-10-12T01:19:43.077Z,13.10
2022-10-12T01:21:20.252Z,13.00
2022-10-12T01:22:22.421Z,13.10
2022-10-12T01:24:01.395Z,13.10
2022-10-12T01:25:26.165Z,13.10
2022-10-12T01:26:56.565Z,13.10
2022-10-12T01:28:20.103Z,13.10
2022-10-12T01:29:48.843Z,13.10
2022-10-12T01:30:57.992Z,13.20
2022-10-12T01:32:17.084Z,13.20
2022-10-12T01:33:33.452Z,13.20
2022-10-12T01:34:40.443Z,13.20
2022-10-12T01:35:47.424Z,13.20
2022-10-12T01:37:20.533Z,13.20
2022-10-12T01:38:27.406Z,13.20
2022-10-12T01:39:28.721Z,13.20
2022-10-12T01:40:48.247Z,13.30
2022-10-12T01:42:03.635Z,13.30
2022-10-12T01:43:05.370Z,13.30
2022-10-12T01:44:06.781Z,13.30
2022-10-12T01:45:11.883Z,13.30
2022-10-12T01:46:13.217Z,13.30
2022-10-12T01:47:14.637Z,13.30
2022-10-12T01:48:17.204Z,13.20
2022-10-12T01:49:23.588Z,13.20
2022-10-12T01:50:33.869Z,13.30
2022-10-12T01:51:51.015Z,13.20
2022-10-12T01:53:16.881Z,13.30
2022-10-12T01:54:38.970Z,13.30
2022-10-12T01:55:47.287Z,13.30
2022-10-12T01:57:33.406Z,13.30
2022-10-12T01:58:49.610Z,13.40
2022-10-12T02:00:00.234Z,13.30
2022-10-12T02:01:26.832Z,13.30
2022-10-12T02:02:50.812Z,13.30
2022-10-12T02:04:17.880Z,13.30
2022-10-12T02:05:52.007Z,13.20
2022-10-12T02:07:07.790Z,13.20
2022-10-12T02:08:18.163Z,13.20
2022-10-12T02:09:27.418Z,13.20
2022-10-12T02:10:36.710Z,13.20
2022-10-12T02:11:41.241Z,13.20
2022-10-12T02:12:44.439Z,13.40
2022-10-12T02:13:54.640Z,13.40
2022-10-12T02:15:02.175Z,13.40
2022-10-12T02:16:11.083Z,13.30
2022-10-12T02:17:15.550Z,13.30
2022-10-12T02:18:19.405Z,13.30
2022-10-12T02:19:28.961Z,13.20
2022-10-12T02:20:32.846Z,13.20
2022-10-12T02:21:53.917Z,13.30
2022-10-12T02:22:55.530Z,13.20
2022-10-12T02:24:00.334Z,13.20
2022-10-12T02:25:10.949Z,13.20
2022-10-12T02:26:14.882Z,13.30
2022-10-12T02:27:18.573Z,13.20
2022-10-12T02:28:23.979Z,13.20
2022-10-12T02:29:39.775Z,13.20
2022-10-12T02:31:07.503Z,13.20
2022-10-12T02:32:28.646Z,13.20
2022-10-12T02:33:42.185Z,13.20
2022-10-12T02:34:49.383Z,13.20
2022-10-12T02:36:02.774Z,13.20
2022-10-12T02:37:23.552Z,13.20
2022-10-12T02:38:34.056Z,13.20
2022-10-12T02:39:56.388Z,13.20
2022-10-12T02:41:02.693Z,13.30
2022-10-12T02:42:12.648Z,13.30
2022-10-12T02:43:29.818Z,13.30
2022-10-12T02:44:34.225Z,13.30
2022-10-12T02:45:36.635Z,13.30
2022-10-12T02:46:39.894Z,13.30
2022-10-12T02:47:43.269Z,13.30
2022-10-12T02:48:47.250Z,13.30
2022-10-12T02:49:50.476Z,13.30
2022-10-12T02:50:54.614Z,13.20
2022-10-12T02:51:57.426Z,13.20
2022-10-12T02:53:00.044Z,13.20
2022-10-12T02:54:02.816Z,13.30
2022-10-12T02:55:05.183Z,13.30
2022-10-12T02:56:12.054Z,13.30
2022-10-12T02:57:13.860Z,13.30
2022-10-12T02:58:15.782Z,13.30
2022-10-12T02:59:18.404Z,13.30
2022-10-12T03:00:20.120Z,13.30
2022-10-12T03:01:21.876Z,13.30
2022-10-12T03:02:23.425Z,13.30
2022-10-12T03:03:25.173Z,13.30
2022-10-12T03:04:26.570Z,13.30
2022-10-12T03:05:28.288Z,13.30
2022-10-12T03:06:29.715Z,13.30
2022-10-12T03:07:31.085Z,13.30
2022-10-12T03:08:32.659Z,13.30
2022-10-12T03:09:34.318Z,13.30
2022-10-12T03:10:35.927Z,13.30
2022-10-12T03:11:43.964Z,13.30
2022-10-12T03:12:49.808Z,13.30
2022-10-12T03:13:55.653Z,13.30
2022-10-12T03:14:57.353Z,13.30
2022-10-12T03:16:07.195Z,13.30
2022-10-12T03:17:08.716Z,13.30
2022-10-12T03:18:10.097Z,13.20
2022-10-12T03:19:12.013Z,13.20
2022-10-12T03:20:13.680Z,13.20
2022-10-12T03:21:15.212Z,13.30
2022-10-12T03:22:16.617Z,13.30
2022-10-12T03:23:17.985Z,13.30
2022-10-12T03:24:19.531Z,13.30
2022-10-12T03:25:20.877Z,13.30
2022-10-12T03:26:23.108Z,13.30
2022-10-12T03:27:24.935Z,13.40
2022-10-12T03:28:26.754Z,13.30
2022-10-12T03:29:28.264Z,13.30
2022-10-12T03:30:29.657Z,13.30
2022-10-12T03:31:31.162Z,13.30
2022-10-12T03:32:32.952Z,13.30
2022-10-12T03:33:34.330Z,13.30
2022-10-12T03:34:35.889Z,13.30
2022-10-12T03:35:37.438Z,13.20
2022-10-12T03:36:38.839Z,13.30
2022-10-12T03:37:41.088Z,13.20
2022-10-12T03:38:42.682Z,13.20
2022-10-12T03:39:44.512Z,13.20
2022-10-12T03:40:46.551Z,13.20
2022-10-12T03:41:48.101Z,13.20
2022-10-12T03:42:49.473Z,13.30
2022-10-12T03:43:50.872Z,13.20
2022-10-12T03:44:52.217Z,13.20
2022-10-12T03:45:54.479Z,13.20
2022-10-12T03:46:55.895Z,13.20
2022-10-12T03:47:59.973Z,13.20
2022-10-12T03:49:05.229Z,13.10
2022-10-12T03:50:06.960Z,13.20
2022-10-12T03:51:08.371Z,13.10
2022-10-12T03:52:10.172Z,13.10
2022-10-12T03:53:11.903Z,13.10
2022-10-12T03:54:13.282Z,13.10
2022-10-12T03:55:14.964Z,13.20
2022-10-12T03:56:16.811Z,13.20
2022-10-12T03:57:18.165Z,13.20
2022-10-12T03:58:19.883Z,13.20
2022-10-12T03:59:21.241Z,13.20
2022-10-12T04:00:22.713Z,13.20
2022-10-12T04:01:24.338Z,13.20
2022-10-12T04:02:25.830Z,13.20
2022-10-12T04:03:27.697Z,13.20
2022-10-12T04:04:29.106Z,13.20
2022-10-12T04:05:31.460Z,13.20
2022-10-12T04:06:32.851Z,13.20
2022-10-12T04:07:34.258Z,13.20
2022-10-12T04:08:35.642Z,13.20
2022-10-12T04:09:37.036Z,13.20
2022-10-12T04:10:38.381Z,13.20
2022-10-12T04:11:39.760Z,13.20
2022-10-12T04:12:41.240Z,13.20
2022-10-12T04:13:43.436Z,13.30
2022-10-12T04:14:44.817Z,13.20
2022-10-12T04:15:46.289Z,13.20
2022-10-12T04:16:47.985Z,13.20
2022-10-12T04:17:49.384Z,13.20
2022-10-12T04:18:50.778Z,13.20
2022-10-12T04:19:52.734Z,13.20
2022-10-12T04:20:54.137Z,13.20
2022-10-12T04:21:55.864Z,13.20
2022-10-12T04:22:57.230Z,13.20
2022-10-12T04:23:58.665Z,13.20
2022-10-12T04:25:00.261Z,13.20
2022-10-12T04:26:01.628Z,13.20
2022-10-12T04:27:03.927Z,13.20
2022-10-12T04:28:05.311Z,13.20
2022-10-12T04:29:06.840Z,13.20
2022-10-12T04:30:09.006Z,13.20
2022-10-12T04:31:10.325Z,13.20
2022-10-12T04:32:12.825Z,13.20
2022-10-12T04:33:14.362Z,13.20
2022-10-12T04:34:15.767Z,13.20
2022-10-12T04:35:17.463Z,13.20
2022-10-12T04:36:19.266Z,13.20
2022-10-12T04:37:20.666Z,13.20
2022-10-12T04:38:22.121Z,13.30
2022-10-12T04:39:23.780Z,13.20
2022-10-12T04:40:25.259Z,13.30
2022-10-12T04:41:26.747Z,13.20
2022-10-12T04:42:28.166Z,13.30
2022-10-12T04:43:29.559Z,13.30
2022-10-12T04:44:32.365Z,13.30
2022-10-12T04:45:34.038Z,13.30
2022-10-12T04:46:35.408Z,13.30
2022-10-12T04:47:37.068Z,13.30
2022-10-12T04:48:38.698Z,13.30
2022-10-12T04:49:40.131Z,13.30
2022-10-12T04:50:41.529Z,13.20
2022-10-12T04:51:43.132Z,13.20
2022-10-12T04:52:44.506Z,13.20
2022-10-12T04:53:46.130Z,13.30
2022-10-12T04:54:47.600Z,13.30
2022-10-12T04:55:49.025Z,13.30
2022-10-12T04:56:50.449Z,13.40
2022-10-12T04:57:51.825Z,13.30
2022-10-12T04:58:53.220Z,13.10
2022-10-12T04:59:54.629Z,13.00
2022-10-12T05:00:56.123Z,12.90
2022-10-12T05:01:57.796Z,12.80
2022-10-12T05:02:59.224Z,12.90
2022-10-12T05:04:00.986Z,12.90
2022-10-12T05:05:02.437Z,12.80
2022-10-12T05:06:03.925Z,12.90
2022-10-12T05:07:05.301Z,12.90
2022-10-12T05:08:07.111Z,12.90
2022-10-12T05:09:10.916Z,12.80
2022-10-12T05:10:14.599Z,12.70
2022-10-12T05:11:16.007Z,12.70
2022-10-12T05:12:17.368Z,12.70
2022-10-12T05:13:19.244Z,12.80
2022-10-12T05:14:20.672Z,12.70
2022-10-12T05:15:22.401Z,12.80
2022-10-12T05:16:24.255Z,12.80
2022-10-12T05:17:25.727Z,12.80
2022-10-12T05:18:27.076Z,12.70
2022-10-12T05:19:28.746Z,12.80
2022-10-12T05:20:30.153Z,12.80
2022-10-12T05:21:31.582Z,12.80
2022-10-12T05:22:32.955Z,12.80
2022-10-12T05:23:34.555Z,12.80
2022-10-12T05:24:36.387Z,12.80
2022-10-12T05:25:38.639Z,12.80
2022-10-12T05:26:40.023Z,12.80
2022-10-12T05:27:41.583Z,12.80
2022-10-12T05:28:43.539Z,12.90
2022-10-12T05:29:45.350Z,12.90
2022-10-12T05:30:50.821Z,12.90
2022-10-12T05:31:52.262Z,12.90
2022-10-12T05:32:53.838Z,12.90
2022-10-12T05:33:55.552Z,12.90
2022-10-12T05:34:57.037Z,12.80
2022-10-12T05:35:58.421Z,12.80
2022-10-12T05:36:59.883Z,12.80
2022-10-12T05:38:01.471Z,12.80
2022-10-12T05:39:02.975Z,12.70
2022-10-12T05:40:04.738Z,12.70
2022-10-12T05:41:06.289Z,12.70
2022-10-12T05:42:07.780Z,12.60
2022-10-12T05:43:09.522Z,12.70
2022-10-12T05:44:11.163Z,12.70
2022-10-12T05:45:12.841Z,12.70
2022-10-12T05:46:14.619Z,12.70
2022-10-12T05:47:16.122Z,12.70
2022-10-12T05:48:17.533Z,12.70
2022-10-12T05:49:18.941Z,12.80
2022-10-12T05:50:21.307Z,12.70
2022-10-12T05:51:27.917Z,12.70
2022-10-12T05:52:30.255Z,12.70
2022-10-12T05:53:31.705Z,12.70
2022-10-12T05:54:33.744Z,12.70
2022-10-12T05:55:35.153Z,12.70
2022-10-12T05:56:36.622Z,12.60
2022-10-12T05:57:38.080Z,12.70
2022-10-12T05:58:39.462Z,12.70
2022-10-12T05:59:42.356Z,12.70
2022-10-12T06:00:44.146Z,12.70
2022-10-12T06:01:46.066Z,12.70
2022-10-12T06:02:47.696Z,12.60
2022-10-12T06:03:49.222Z,12.70
2022-10-12T06:04:50.943Z,12.70
2022-10-12T06:05:52.314Z,12.70
2022-10-12T06:06:53.757Z,12.70
2022-10-12T06:07:55.359Z,12.70
2022-10-12T06:08:56.698Z,12.70
2022-10-12T06:09:58.055Z,12.70
2022-10-12T06:10:59.493Z,12.70
2022-10-12T06:12:01.048Z,12.80
2022-10-12T06:13:03.284Z,12.80
2022-10-12T06:14:05.146Z,12.80
2022-10-12T06:15:07.537Z,12.80
2022-10-12T06:16:08.921Z,12.90
2022-10-12T06:17:10.275Z,13.00
2022-10-12T06:18:12.572Z,12.90
2022-10-12T06:19:14.098Z,13.00
2022-10-12T06:20:16.138Z,13.00
2022-10-12T06:21:34.342Z,13.10
2022-10-12T06:22:36.810Z,13.10
2022-10-12T06:23:38.620Z,13.10
2022-10-12T06:24:40.066Z,13.10
2022-10-12T06:25:42.034Z,13.10
2022-10-12T06:26:43.486Z,13.10
2022-10-12T06:27:45.821Z,13.10
2022-10-12T06:28:47.222Z,13.10
2022-10-12T06:29:48.662Z,13.10
2022-10-12T06:30:54.801Z,13.10
2022-10-12T06:31:56.284Z,13.20
2022-10-12T06:32:57.656Z,13.20
2022-10-12T06:33:59.037Z,13.20
2022-10-12T06:35:00.756Z,13.20
2022-10-12T06:36:02.595Z,13.20
2022-10-12T06:37:04.478Z,13.30
2022-10-12T06:38:06.114Z,13.30
2022-10-12T06:39:08.721Z,13.30
2022-10-12T06:40:10.697Z,13.40
2022-10-12T06:41:12.607Z,13.40
2022-10-12T06:42:14.299Z,13.40
2022-10-12T06:43:24.262Z,13.40
2022-10-12T06:44:25.757Z,13.40
2022-10-12T06:45:27.117Z,13.50
2022-10-12T06:46:28.567Z,13.50
2022-10-12T06:47:30.108Z,13.50
2022-10-12T06:48:31.786Z,13.50
2022-10-12T06:49:33.171Z,13.60
2022-10-12T06:50:35.212Z,13.60
2022-10-12T06:51:36.615Z,13.60
2022-10-12T06:52:38.686Z,13.60
2022-10-12T06:53:40.462Z,13.70
2022-10-12T06:54:42.337Z,13.70
2022-10-12T06:55:43.924Z,13.70
2022-10-12T06:56:45.781Z,13.70
2022-10-12T06:57:47.169Z,13.70
2022-10-12T06:58:53.383Z,13.80
2022-10-12T06:59:54.833Z,13.80
2022-10-12T07:00:56.315Z,13.80
2022-10-12T07:01:57.951Z,13.80
2022-10-12T07:02:59.341Z,13.90
2022-10-12T07:04:01.100Z,13.90
2022-10-12T07:05:02.960Z,14.00
2022-10-12T07:06:13.159Z,14.00
2022-10-12T07:07:14.525Z,14.00
2022-10-12T07:08:15.887Z,14.00
2022-10-12T07:09:17.714Z,14.00
2022-10-12T07:10:19.142Z,14.00
2022-10-12T07:11:20.537Z,14.00
2022-10-12T07:12:21.909Z,14.10
2022-10-12T07:13:23.540Z,14.20
2022-10-12T07:14:24.986Z,14.20
2022-10-12T07:15:26.454Z,14.10
2022-10-12T07:16:27.906Z,14.20
2022-10-12T07:17:29.312Z,14.10
2022-10-12T07:18:31.449Z,14.10
2022-10-12T07:19:32.949Z,13.80
2022-10-12T07:20:34.371Z,13.70
2022-10-12T07:21:35.729Z,13.70
2022-10-12T07:22:37.856Z,13.60
2022-10-12T07:23:43.746Z,13.70
2022-10-12T07:24:47.305Z,13.70
2022-10-12T07:25:49.918Z,13.60
2022-10-12T07:26:51.817Z,13.70
2022-10-12T07:27:53.253Z,13.70
2022-10-12T07:28:54.671Z,13.80
2022-10-12T07:29:56.320Z,13.80
2022-10-12T07:31:06.065Z,13.90
2022-10-12T07:32:08.028Z,14.00
2022-10-12T07:33:09.548Z,14.10
2022-10-12T07:34:10.899Z,14.10
2022-10-12T07:35:12.615Z,14.20
2022-10-12T07:36:17.112Z,14.20
2022-10-12T07:37:20.685Z,14.20
2022-10-12T07:38:22.117Z,14.20
2022-10-12T07:39:24.395Z,14.10
2022-10-12T07:40:26.419Z,13.90
2022-10-12T07:41:27.792Z,13.80
2022-10-12T07:42:29.202Z,13.80
2022-10-12T07:43:31.592Z,13.70
2022-10-12T07:44:34.420Z,13.50
2022-10-12T07:45:36.234Z,13.50
2022-10-12T07:46:37.918Z,13.40
2022-10-12T07:47:39.730Z,13.40
2022-10-12T07:48:44.502Z,13.50
2022-10-12T07:49:48.817Z,13.50
2022-10-12T07:50:50.396Z,13.50
2022-10-12T07:51:51.745Z,13.50
2022-10-12T07:52:53.303Z,13.40
2022-10-12T07:53:54.678Z,13.40
2022-10-12T07:54:56.068Z,13.40
2022-10-12T07:56:05.444Z,13.40
2022-10-12T07:57:07.029Z,13.30
2022-10-12T07:58:08.653Z,13.40
2022-10-12T07:59:10.064Z,13.40
2022-10-12T08:00:11.837Z,13.50
2022-10-12T08:01:13.348Z,13.50
2022-10-12T08:02:14.955Z,13.50
2022-10-12T08:03:16.618Z,13.50
2022-10-12T08:04:18.233Z,13.50
2022-10-12T08:05:21.282Z,13.50
2022-10-12T08:06:24.727Z,13.50
2022-10-12T08:07:26.325Z,13.60
2022-10-12T08:08:27.750Z,13.60
2022-10-12T08:09:29.138Z,13.70
2022-10-12T08:10:30.600Z,13.70
2022-10-12T08:11:32.093Z,13.80
2022-10-12T08:12:33.480Z,13.90
2022-10-12T08:13:35.793Z,13.80
2022-10-12T08:14:37.658Z,13.80
2022-10-12T08:15:39.309Z,13.80
2022-10-12T08:16:42.552Z,13.80
2022-10-12T08:17:43.905Z,13.90
2022-10-12T08:18:45.956Z,13.90
2022-10-12T08:19:47.870Z,13.90
2022-10-12T08:20:49.294Z,14.00
2022-10-12T08:21:50.924Z,14.10
2022-10-12T08:22:52.306Z,14.00
2022-10-12T08:23:53.640Z,13.80
2022-10-12T08:24:55.034Z,13.70
2022-10-12T08:25:57.715Z,13.70
2022-10-12T08:27:01.463Z,13.80
2022-10-12T08:28:04.513Z,13.70
2022-10-12T08:29:08.096Z,13.80
2022-10-12T08:30:09.938Z,13.80
2022-10-12T08:31:15.103Z,13.80
2022-10-12T08:32:16.536Z,13.80
2022-10-12T08:33:19.154Z,13.70
2022-10-12T08:34:21.221Z,13.70
2022-10-12T08:35:22.760Z,13.70
2022-10-12T08:36:24.139Z,13.90
2022-10-12T08:37:25.526Z,13.80
2022-10-12T08:38:27.259Z,13.70
2022-10-12T08:39:28.740Z,13.80
2022-10-12T08:40:33.111Z,13.80
2022-10-12T08:41:40.194Z,13.90
2022-10-12T08:42:48.925Z,13.80
2022-10-12T08:44:05.237Z,13.80
2022-10-12T08:45:07.051Z,13.80
2022-10-12T08:46:09.060Z,13.80
2022-10-12T08:47:13.570Z,13.80
2022-10-12T08:48:44.046Z,13.80
2022-10-12T08:49:50.051Z,13.80
2022-10-12T08:52:06.741Z,13.70
2022-10-12T08:53:15.902Z,13.70
2022-10-12T08:54:24.295Z,13.90
2022-10-12T08:55:43.574Z,13.90
2022-10-12T08:56:45.284Z,13.90
2022-10-12T08:57:49.905Z,13.90
2022-10-12T08:58:53.373Z,14.00
2022-10-12T08:59:54.750Z,14.00
2022-10-12T09:01:05.717Z,14.10
2022-10-12T09:02:24.951Z,14.10
2022-10-12T09:03:33.510Z,14.10
2022-10-12T09:04:47.357Z,14.10
2022-10-12T09:06:02.035Z,14.20
2022-10-12T09:07:30.746Z,14.20
2022-10-12T09:09:04.655Z,14.10
2022-10-12T09:10:46.034Z,14.20
2022-10-12T09:12:10.959Z,14.30
2022-10-12T09:13:39.973Z,14.30
2022-10-12T09:14:42.479Z,14.40
2022-10-12T09:15:59.998Z,14.50
2022-10-12T09:17:06.128Z,14.40
2022-10-12T09:18:18.485Z,14.50
2022-10-12T09:19:24.946Z,14.70
2022-10-12T09:20:46.997Z,14.70
2022-10-12T09:21:49.640Z,14.70
2022-10-12T09:22:55.228Z,14.70
2022-10-12T09:23:58.068Z,14.60
2022-10-12T09:25:01.377Z,14.60
2022-10-12T09:26:29.912Z,14.60
2022-10-12T09:27:32.204Z,14.60
2022-10-12T09:28:40.671Z,14.70
2022-10-12T09:29:46.602Z,14.80
2022-10-12T09:30:59.722Z,14.80
2022-10-12T09:32:20.289Z,14.80
2022-10-12T09:33:30.298Z,14.90
2022-10-12T09:34:32.052Z,15.00
2022-10-12T09:35:34.094Z,15.00
2022-10-12T09:36:38.270Z,14.80
2022-10-12T09:37:40.366Z,14.70
2022-10-12T09:38:41.806Z,14.60
2022-10-12T09:39:43.559Z,14.50
2022-10-12T09:40:45.552Z,14.50
2022-10-12T09:41:49.101Z,14.60
2022-10-12T09:42:51.505Z,14.60
2022-10-12T09:43:56.993Z,14.60
2022-10-12T09:45:21.164Z,14.60
2022-10-12T09:46:39.999Z,14.60
2022-10-12T09:47:41.475Z,14.80
2022-10-12T09:49:00.278Z,14.90
2022-10-12T09:50:06.656Z,15.00
2022-10-12T09:51:08.355Z,15.00
2022-10-12T09:52:12.775Z,15.00
2022-10-12T09:53:21.054Z,15.10
2022-10-12T09:54:26.220Z,15.20
2022-10-12T09:56:41.982Z,15.40
2022-10-12T09:57:51.718Z,15.50
2022-10-12T09:58:58.701Z,15.50
2022-10-12T10:00:03.305Z,15.60
2022-10-12T10:01:21.472Z,15.60
2022-10-12T10:02:25.601Z,15.70
2022-10-12T10:03:31.458Z,15.80
2022-10-12T10:04:33.174Z,15.80
2022-10-12T10:05:37.918Z,15.60
2022-10-12T10:06:46.043Z,15.60
2022-10-12T10:07:47.427Z,15.70
2022-10-12T10:08:48.872Z,15.80
2022-10-12T10:10:17.236Z,15.70
2022-10-12T10:11:31.455Z,15.70
2022-10-12T10:12:34.708Z,15.90
2022-10-12T10:13:37.960Z,15.90
2022-10-12T10:14:43.732Z,15.70
2022-10-12T10:15:50.521Z,15.70
2022-10-12T10:16:54.671Z,15.50
2022-10-12T10:18:00.515Z,15.50
2022-10-12T10:19:02.293Z,15.50
2022-10-12T10:20:07.678Z,15.50
2022-10-12T10:21:13.089Z,15.60
2022-10-12T10:22:14.594Z,15.70
2022-10-12T10:23:43.225Z,15.70
2022-10-12T10:25:00.183Z,15.70
2022-10-12T10:26:02.112Z,15.70
2022-10-12T10:27:07.212Z,15.80
2022-10-12T10:28:24.054Z,15.90
2022-10-12T10:29:40.680Z,15.90
2022-10-12T10:30:42.570Z,16.00
2022-10-12T10:31:46.444Z,15.80
2022-10-12T10:32:48.217Z,15.80
2022-10-12T10:34:08.006Z,15.80
2022-10-12T10:35:12.420Z,15.80
2022-10-12T10:36:21.542Z,15.70
2022-10-12T10:37:23.776Z,15.90
2022-10-12T10:38:25.697Z,15.90
2022-10-12T10:39:32.202Z,15.90
2022-10-12T10:40:34.033Z,15.90
2022-10-12T10:41:41.611Z,15.90
2022-10-12T10:42:43.446Z,15.90
2022-10-12T10:43:49.220Z,15.90
2022-10-12T10:44:59.376Z,15.80
2022-10-12T10:46:03.440Z,15.80
2022-10-12T10:47:13.421Z,15.80
2022-10-12T10:48:19.709Z,15.90
2022-10-12T10:49:30.332Z,15.90
2022-10-12T10:50:39.194Z,16.10
2022-10-12T10:51:58.536Z,16.30
2022-10-12T10:53:04.057Z,16.30
2022-10-12T10:54:28.070Z,16.20
2022-10-12T10:55:42.141Z,16.20
2022-10-12T10:56:44.584Z,16.10
2022-10-12T10:58:03.165Z,16.20
2022-10-12T10:59:17.868Z,16.40
2022-10-12T11:02:00.165Z,16.30
2022-10-12T11:03:07.711Z,16.30
2022-10-12T11:04:22.835Z,16.50
2022-10-12T11:05:50.199Z,16.60
2022-10-12T11:06:56.286Z,16.80
2022-10-12T11:08:05.943Z,16.80
2022-10-12T11:09:22.625Z,16.60
2022-10-12T11:10:44.901Z,16.60
2022-10-12T11:11:54.271Z,16.60
2022-10-12T11:13:03.086Z,16.60
2022-10-12T11:14:18.145Z,16.40
2022-10-12T11:15:27.183Z,16.50
2022-10-12T11:16:59.466Z,16.50
2022-10-12T11:18:28.296Z,16.50
2022-10-12T11:19:38.959Z,16.70
2022-10-12T11:20:53.089Z,16.70
2022-10-12T11:21:59.150Z,16.50
2022-10-12T11:23:13.721Z,16.60
2022-10-12T11:24:19.645Z,16.60
2022-10-12T11:25:24.714Z,16.50
2022-10-12T11:26:37.981Z,16.50
2022-10-12T11:27:41.610Z,16.40
2022-10-12T11:28:43.847Z,16.50
2022-10-12T11:29:54.038Z,16.50
2022-10-12T11:31:07.043Z,16.50
2022-10-12T11:32:29.608Z,16.40
2022-10-12T11:33:38.552Z,16.40
2022-10-12T11:35:02.572Z,16.50
2022-10-12T11:36:08.208Z,16.50
2022-10-12T11:37:20.943Z,16.50
2022-10-12T11:38:38.416Z,16.40
2022-10-12T11:39:45.073Z,16.50
2022-10-12T11:41:30.915Z,16.30
2022-10-12T11:42:48.241Z,16.50
2022-10-12T11:44:30.708Z,16.50
2022-10-12T11:45:40.773Z,16.50
2022-10-12T11:46:58.989Z,16.50
2022-10-12T11:48:15.134Z,16.40
2022-10-12T11:49:27.152Z,16.60
2022-10-12T11:50:34.192Z,16.60
2022-10-12T11:51:35.634Z,16.70
2022-10-12T11:52:47.220Z,16.70
2022-10-12T11:54:10.203Z,16.70
2022-10-12T11:55:41.531Z,16.90
2022-10-12T11:56:49.172Z,17.10
2022-10-12T11:57:53.283Z,17.20
2022-10-12T11:59:04.022Z,17.10
2022-10-12T12:00:16.307Z,17.10
2022-10-12T12:01:29.478Z,17.20
2022-10-12T12:02:39.292Z,17.20
2022-10-12T12:03:43.590Z,17.10
2022-10-12T12:04:48.425Z,17.10
2022-10-12T12:05:50.021Z,17.10
2022-10-12T12:07:30.255Z,16.90
2022-10-12T12:08:40.232Z,16.90
2022-10-12T12:09:49.498Z,16.80
2022-10-12T12:11:02.407Z,16.80
2022-10-12T12:12:23.617Z,16.80
2022-10-12T12:13:27.019Z,16.80
2022-10-12T12:14:28.469Z,16.80
2022-10-12T12:15:29.907Z,16.80
2022-10-12T12:16:43.930Z,16.80
2022-10-12T12:18:09.459Z,16.80
2022-10-12T12:19:10.785Z,16.80
2022-10-12T12:20:40.880Z,16.80
2022-10-12T12:22:16.617Z,16.70
2022-10-12T12:23:31.642Z,16.80
2022-10-12T12:24:33.157Z,16.80
2022-10-12T12:25:34.689Z,16.80
2022-10-12T12:26:36.129Z,16.80
2022-10-12T12:27:39.605Z,16.80
2022-10-12T12:28:47.857Z,16.80
2022-10-12T12:29:53.580Z,16.90
2022-10-12T12:31:05.106Z,17.00
2022-10-12T12:32:06.645Z,17.10
2022-10-12T12:33:20.078Z,17.10
2022-10-12T12:34:22.257Z,16.90
2022-10-12T12:35:39.815Z,17.10
2022-10-12T12:36:47.375Z,17.10
2022-10-12T12:37:50.575Z,17.00
2022-10-12T12:38:52.865Z,17.10
2022-10-12T12:39:59.467Z,16.90
2022-10-12T12:41:18.262Z,17.00
2022-10-12T12:42:28.390Z,17.10
2022-10-12T12:43:29.784Z,17.20
2022-10-12T12:44:33.972Z,17.20
2022-10-12T12:45:35.326Z,17.20
2022-10-12T12:46:54.957Z,17.30
2022-10-12T12:47:56.399Z,17.20
2022-10-12T12:48:59.316Z,17.10
2022-10-12T12:50:39.791Z,17.10
2022-10-12T12:51:43.513Z,17.30
2022-10-12T12:52:45.061Z,17.40
2022-10-12T12:53:51.846Z,17.50
2022-10-12T12:55:11.315Z,17.60
2022-10-12T12:56:43.612Z,17.70
2022-10-12T12:58:06.660Z,17.90
2022-10-12T12:59:48.463Z,17.80
2022-10-12T13:01:27.559Z,18.00
2022-10-12T13:03:08.078Z,17.90
2022-10-12T13:04:35.346Z,17.90
2022-10-12T13:06:11.603Z,18.00
2022-10-12T13:07:28.786Z,18.00
2022-10-12T13:09:07.655Z,17.90
2022-10-12T13:10:21.034Z,17.80
2022-10-12T13:11:22.378Z,17.70
2022-10-12T13:12:59.012Z,17.70
2022-10-12T13:14:19.171Z,17.70
2022-10-12T13:15:23.717Z,17.60
2022-10-12T13:17:31.278Z,17.60
2022-10-12T13:18:45.216Z,17.70
2022-10-12T13:19:44.485Z,17.80
2022-10-12T13:20:48.871Z,17.90
2022-10-12T13:21:52.845Z,18.00
2022-10-12T13:22:57.828Z,18.10
2022-10-12T13:24:11.705Z,18.10
2022-10-12T13:25:27.610Z,18.20
2022-10-12T13:26:32.309Z,18.20
2022-10-12T13:27:45.764Z,18.30
2022-10-12T13:28:49.911Z,18.30
2022-10-12T13:30:03.279Z,18.40
2022-10-12T13:31:09.434Z,18.40
2022-10-12T13:32:49.892Z,18.40
2022-10-12T13:33:58.595Z,18.50
2022-10-12T13:35:13.237Z,18.50
2022-10-12T13:36:23.358Z,18.60
2022-10-12T13:37:30.879Z,18.60
2022-10-12T13:38:35.668Z,18.60
2022-10-12T13:39:43.229Z,18.60
2022-10-12T13:41:06.597Z,18.70
2022-10-12T13:42:25.865Z,18.70
2022-10-12T13:43:36.625Z,18.70
2022-10-12T13:44:38.206Z,18.70
2022-10-12T13:45:49.503Z,18.70
2022-10-12T13:46:56.524Z,18.70
2022-10-12T13:48:04.391Z,18.80
2022-10-12T13:49:25.750Z,18.80
2022-10-12T13:50:27.183Z,18.80
2022-10-12T13:51:30.803Z,18.80
2022-10-12T13:52:34.165Z,18.80
2022-10-12T13:53:38.114Z,18.80
2022-10-12T13:54:44.494Z,18.70
2022-10-12T13:56:06.651Z,18.70
2022-10-12T13:57:14.143Z,18.70
2022-10-12T13:58:31.415Z,18.70
2022-10-12T13:59:37.975Z,18.60
2022-10-12T14:00:48.073Z,18.60
2022-10-12T14:02:00.639Z,18.60
2022-10-12T14:03:04.114Z,18.50
2022-10-12T14:04:06.275Z,18.50
2022-10-12T14:05:19.973Z,18.50
2022-10-12T14:06:25.157Z,18.50
2022-10-12T14:07:39.062Z,18.40
2022-10-12T14:08:40.670Z,18.40
2022-10-12T14:09:45.531Z,18.30
2022-10-12T14:10:49.446Z,18.30
2022-10-12T14:11:52.033Z,18.20
2022-10-12T14:12:54.911Z,18.10
2022-10-12T14:13:56.877Z,18.00
2022-10-12T14:14:59.376Z,17.90
2022-10-12T14:16:04.416Z,17.90
2022-10-12T14:17:06.263Z,17.80
2022-10-12T14:18:37.607Z,17.70
2022-10-12T14:19:45.015Z,17.60
2022-10-12T14:20:46.667Z,17.60
2022-10-12T14:21:49.087Z,17.60
2022-10-12T14:22:50.678Z,17.50